Time;durP1;ratioP1;P1;durP2;ratioP2;P2;SDS_P1;SDS_P2;PMS_P1;PMS_P2;Temp;Humidity;BMP_temperature;BMP_pressure;BME280_temperature;BME280_humidity;BME280_pressure;Samples;Min_cycle;Max_cycle;Signal;HPM_P1;HPM_P2
2022/03/03 00:01:35;;;;;;;;;;;;;;;2.22;56.99;102042.53;5053322;28;19923;-80
2022/03/03 00:04:00;;;;;;;;;;;;;;;2.20;57.10;102037.34;5054211;28;19920;-80
2022/03/03 00:06:25;;;;;;;;;;;;;;;2.18;55.80;102038.84;5050754;28;19927;-80
2022/03/03 00:08:51;;;;;;;;;;;;;;;2.10;57.60;102029.75;5050884;28;20018;-80
2022/03/03 00:11:16;;;;;;;;;;;;;;;2.14;57.60;102042.81;5048977;28;19921;-80
2022/03/03 00:13:41;;;;;;;;;;;;;;;2.17;57.76;102038.72;5051444;28;20286;-79
2022/03/03 00:16:08;;;;;;;;;;;;;;;2.14;57.71;102035.19;5055236;28;19925;-80
2022/03/03 00:18:33;;;;;;;;;;;;;;;2.15;58.39;102033.53;5055602;28;19923;-80
2022/03/03 00:20:58;;;;;;;;;;;;;;;2.12;58.47;102030.75;5048557;28;20015;-81
2022/03/03 00:23:24;;;;;;;;;;;;;;;2.13;58.08;102028.34;5051468;28;19956;-79
2022/03/03 00:25:49;;;;;;;;;;;;;;;2.13;57.83;102033.44;5054856;28;20394;-80
2022/03/03 00:28:14;;;;;;;;;;;;;;;2.11;58.13;102031.50;5051669;28;19972;-79
2022/03/03 00:30:40;;;;;;;;;;;;;;;2.07;58.63;102029.50;5050345;28;19932;-80
2022/03/03 00:33:05;;;;;;;;;;;;;;;2.00;58.66;102038.28;5049547;28;19929;-80
2022/03/03 00:35:30;;;;;;;;;;;;;;;2.02;58.67;102024.06;5051097;28;20385;-79
2022/03/03 00:37:55;;;;;;;;;;;;;;;2.00;57.52;102022.16;5051040;28;19916;-80
2022/03/03 00:40:21;;;;;;;;;;;;;;;1.91;59.09;102029.03;5052283;28;19935;-77
2022/03/03 00:42:47;;;;;;;;;;;;;;;1.86;59.04;102027.00;5054609;28;19921;-80
2022/03/03 00:45:12;;;;;;;;;;;;;;;1.85;59.29;102025.22;5053048;28;19940;-80
2022/03/03 00:47:37;;;;;;;;;;;;;;;1.86;58.96;102019.38;5053224;28;19924;-80
2022/03/03 00:50:02;;;;;;;;;;;;;;;1.86;58.82;102013.44;5052259;28;19928;-79
2022/03/03 00:52:28;;;;;;;;;;;;;;;1.81;59.62;102017.22;5052367;28;19931;-76
2022/03/03 00:54:53;;;;;;;;;;;;;;;1.75;59.72;102019.28;5048026;28;19993;-77
2022/03/03 00:57:18;;;;;;;;;;;;;;;1.70;59.88;102020.53;5047692;28;19924;-80
2022/03/03 00:59:43;;;;;;;;;;;;;;;1.66;60.31;102018.53;5051336;28;19916;-81
2022/03/03 01:02:09;;;;;;;;;;;;;;;1.59;60.41;102018.03;5050278;28;19928;-79
2022/03/03 01:04:34;;;;;;;;;;;;;;;1.56;60.93;102016.88;5049220;28;20391;-79
2022/03/03 01:06:59;;;;;;;;;;;;;;;1.50;60.71;102016.38;5047482;28;19928;-80
2022/03/03 01:09:24;;;;;;;;;;;;;;;1.44;61.45;102024.34;5042138;28;20391;-80
2022/03/03 01:11:50;;;;;;;;;;;;;;;1.41;60.88;102018.16;5044102;28;19971;-80
2022/03/03 01:14:21;;;;;;;;;;;;;;;1.36;60.85;102019.44;5045569;28;19928;-79
2022/03/03 01:16:46;;;;;;;;;;;;;;;1.31;61.38;102024.09;5046413;28;19928;-78
2022/03/03 01:19:11;;;;;;;;;;;;;;;1.28;61.72;102014.59;5060845;28;19925;-78
2022/03/03 01:21:37;;;;;;;;;;;;;;;1.22;61.58;102003.09;5044760;28;19921;-80
2022/03/03 01:24:02;;;;;;;;;;;;;;;1.19;62.39;102012.94;5042315;28;20387;-78
2022/03/03 01:26:27;;;;;;;;;;;;;;;1.15;62.76;102005.84;5048158;28;19920;-79
2022/03/03 01:28:52;;;;;;;;;;;;;;;1.12;62.63;102010.66;5034948;28;19974;-78
2022/03/03 01:31:18;;;;;;;;;;;;;;;1.12;63.21;102008.13;5043650;28;19936;-77
2022/03/03 01:33:43;;;;;;;;;;;;;;;1.05;63.57;102006.72;5045415;28;19920;-79
2022/03/03 01:36:08;;;;;;;;;;;;;;;1.02;62.83;101996.31;5044420;28;20469;-77
2022/03/03 01:38:33;;;;;;;;;;;;;;;0.95;63.22;101994.03;5045259;28;20051;-79
2022/03/03 01:40:59;;;;;;;;;;;;;;;0.87;62.90;101997.56;5058902;28;19939;-80
2022/03/03 01:43:24;;;;;;;;;;;;;;;0.77;62.19;101991.72;5044471;28;19928;-79
2022/03/03 01:45:49;;;;;;;;;;;;;;;0.69;61.80;101984.25;5041122;28;19931;-79
2022/03/03 01:48:14;;;;;;;;;;;;;;;0.63;61.17;101986.25;5041701;28;20444;-79
2022/03/03 01:50:40;;;;;;;;;;;;;;;0.56;64.49;101981.41;5046126;28;19929;-79
2022/03/03 01:53:05;;;;;;;;;;;;;;;0.54;64.02;101979.63;5044555;28;20634;-80
2022/03/03 01:55:31;;;;;;;;;;;;;;;0.55;63.12;101978.00;5045461;28;19921;-78
2022/03/03 01:57:58;;;;;;;;;;;;;;;0.50;63.28;101974.19;5045392;28;20454;-78
2022/03/03 02:00:23;;;;;;;;;;;;;;;0.46;63.67;101970.50;5045722;28;19924;-78
2022/03/03 02:02:48;;;;;;;;;;;;;;;0.44;64.26;101966.06;5036562;28;20509;-78
2022/03/03 02:05:14;;;;;;;;;;;;;;;0.40;64.64;101966.56;5059272;28;19921;-75
2022/03/03 02:07:39;;;;;;;;;;;;;;;0.37;65.11;101964.66;5048998;28;19925;-78
2022/03/03 02:10:05;;;;;;;;;;;;;;;0.36;65.57;101967.91;5049859;28;19929;-80
2022/03/03 02:12:30;;;;;;;;;;;;;;;0.35;65.63;101966.16;5050077;28;20347;-80
2022/03/03 02:14:56;;;;;;;;;;;;;;;0.34;65.07;101971.09;5050610;28;19933;-80
2022/03/03 02:17:21;;;;;;;;;;;;;;;0.27;64.51;101959.56;5052459;28;19917;-79
2022/03/03 02:19:47;;;;;;;;;;;;;;;0.23;65.38;101957.50;5053676;28;19924;-78
2022/03/03 02:22:12;;;;;;;;;;;;;;;0.20;65.58;101962.31;5050884;28;19963;-79
2022/03/03 02:24:38;;;;;;;;;;;;;;;0.20;65.52;101954.72;5055606;28;19942;-80
2022/03/03 02:27:03;;;;;;;;;;;;;;;0.24;66.47;101956.75;5056149;28;19929;-79
2022/03/03 02:29:29;;;;;;;;;;;;;;;0.24;66.19;101954.22;5055132;28;20573;-79
2022/03/03 02:31:54;;;;;;;;;;;;;;;0.22;66.27;101956.63;5057173;28;20003;-79
2022/03/03 02:34:20;;;;;;;;;;;;;;;0.18;66.34;101953.69;5057885;28;19928;-80
2022/03/03 02:36:45;;;;;;;;;;;;;;;0.17;66.04;101957.84;5053547;28;19947;-79
2022/03/03 02:39:10;;;;;;;;;;;;;;;0.14;65.51;101955.06;5058071;28;20589;-78
2022/03/03 02:41:37;;;;;;;;;;;;;;;0.11;66.74;101954.78;5052474;28;19971;-80
2022/03/03 02:44:02;;;;;;;;;;;;;;;0.08;66.02;101956.19;5047636;28;20371;-77
2022/03/03 02:46:28;;;;;;;;;;;;;;;0.05;66.78;101954.25;5048159;28;19931;-81
2022/03/03 02:48:53;;;;;;;;;;;;;;;0.03;66.57;101953.25;5049382;28;20027;-81
2022/03/03 02:51:18;;;;;;;;;;;;;;;0.01;67.63;101949.69;5046564;28;20433;-80
2022/03/03 02:53:44;;;;;;;;;;;;;;;0.04;67.18;101946.53;5047909;28;19955;-81
2022/03/03 02:56:09;;;;;;;;;;;;;;;0.10;66.67;101947.06;5046844;28;19963;-80
2022/03/03 02:58:35;;;;;;;;;;;;;;;0.08;66.80;101952.00;5047318;28;20318;-80
2022/03/03 03:01:01;;;;;;;;;;;;;;;0.05;67.10;101953.38;5048439;28;19995;-80
2022/03/03 03:03:26;;;;;;;;;;;;;;;-0.02;67.85;101952.84;5048157;28;19979;-79
2022/03/03 03:05:51;;;;;;;;;;;;;;;0.01;67.48;101949.69;5051332;28;20495;-80
2022/03/03 03:08:16;;;;;;;;;;;;;;;0.02;67.50;101955.66;5051261;28;19928;-80
2022/03/03 03:10:42;;;;;;;;;;;;;;;0.01;67.34;101954.75;5043729;28;20307;-77
2022/03/03 03:13:08;;;;;;;;;;;;;;;0.03;67.53;101955.78;5048174;28;19985;-80
2022/03/03 03:15:34;;;;;;;;;;;;;;;0.01;67.48;101949.69;5048562;28;19925;-81
2022/03/03 03:18:14;;;;;;;;;;;;;;;0.01;67.36;101947.19;5046874;28;20141;-80
2022/03/03 03:20:41;;;;;;;;;;;;;;;-0.03;67.78;101943.47;5047573;28;20005;-80
2022/03/03 03:23:06;;;;;;;;;;;;;;;-0.05;67.53;101937.41;5047896;28;19960;-81
2022/03/03 03:25:32;;;;;;;;;;;;;;;-0.04;67.59;101931.59;5055630;28;19924;-77
2022/03/03 03:27:57;;;;;;;;;;;;;;;-0.01;67.54;101930.97;5059001;28;19917;-85
2022/03/03 03:30:23;;;;;;;;;;;;;;;-0.01;67.34;101926.78;5059382;28;19921;-81
2022/03/03 03:32:48;;;;;;;;;;;;;;;-0.02;67.70;101925.03;5053012;28;20002;-80
2022/03/03 03:35:13;;;;;;;;;;;;;;;-0.04;67.38;101918.06;5049904;28;20425;-81
2022/03/03 03:37:39;;;;;;;;;;;;;;;-0.10;68.12;101926.00;5048215;28;19921;-77
2022/03/03 03:40:06;;;;;;;;;;;;;;;-0.09;67.89;101921.84;5046895;28;19939;-81
2022/03/03 03:42:31;;;;;;;;;;;;;;;-0.12;67.73;101927.53;5048533;28;19921;-80
2022/03/03 03:44:56;;;;;;;;;;;;;;;-0.17;68.39;101920.28;5043706;28;19917;-81
2022/03/03 03:47:22;;;;;;;;;;;;;;;-0.18;67.39;101921.00;5044467;28;19939;-80
2022/03/03 03:49:47;;;;;;;;;;;;;;;-0.24;68.32;101921.38;5045291;28;20294;-78
2022/03/03 03:52:12;;;;;;;;;;;;;;;-0.28;69.29;101914.28;5046473;28;19921;-81
2022/03/03 03:54:37;;;;;;;;;;;;;;;-0.29;68.72;101910.88;5046084;28;20430;-81
2022/03/03 03:57:04;;;;;;;;;;;;;;;-0.29;68.47;101912.50;5048143;28;19993;-81
2022/03/03 03:59:29;;;;;;;;;;;;;;;-0.36;68.30;101911.09;5043381;28;19921;-81
2022/03/03 04:01:54;;;;;;;;;;;;;;;-0.42;70.10;101908.03;5047507;28;20019;-82
2022/03/03 04:04:20;;;;;;;;;;;;;;;-0.43;70.02;101912.91;5045773;28;19932;-79
2022/03/03 04:06:45;;;;;;;;;;;;;;;-0.42;69.63;101909.66;5061620;28;19921;-80
2022/03/03 04:09:10;;;;;;;;;;;;;;;-0.43;69.18;101912.91;5046744;28;19929;-81
2022/03/03 04:11:36;;;;;;;;;;;;;;;-0.41;70.08;101919.00;5039231;28;19925;-81
2022/03/03 04:14:01;;;;;;;;;;;;;;;-0.37;69.55;101918.50;5043185;28;19932;-81
2022/03/03 04:16:26;;;;;;;;;;;;;;;-0.38;70.00;101912.56;5046130;28;19936;-81
2022/03/03 04:18:52;;;;;;;;;;;;;;;-0.41;69.77;101908.91;5040884;28;19917;-79
2022/03/03 04:21:17;;;;;;;;;;;;;;;-0.42;69.78;101908.03;5041185;28;19961;-79
2022/03/03 04:23:43;;;;;;;;;;;;;;;-0.45;69.25;101904.31;5044425;28;19923;-77
2022/03/03 04:26:09;;;;;;;;;;;;;;;-0.48;69.86;101894.84;5044330;28;19920;-77
2022/03/03 04:28:34;;;;;;;;;;;;;;;-0.49;69.18;101902.25;5044622;28;19987;-81
2022/03/03 04:30:59;;;;;;;;;;;;;;;-0.57;70.56;101894.91;5044125;28;19936;-80
2022/03/03 04:33:24;;;;;;;;;;;;;;;-0.59;69.50;101891.34;5044865;28;20019;-79
2022/03/03 04:35:50;;;;;;;;;;;;;;;-0.68;70.25;101892.16;5042377;28;19931;-82
2022/03/03 04:38:15;;;;;;;;;;;;;;;-0.76;70.58;101891.50;5046489;28;20406;-81
2022/03/03 04:40:40;;;;;;;;;;;;;;;-0.76;69.60;101899.06;5044573;28;19991;-83
2022/03/03 04:43:05;;;;;;;;;;;;;;;-0.78;70.14;101890.47;5046258;28;19921;-82
2022/03/03 04:45:31;;;;;;;;;;;;;;;-0.78;69.36;101887.06;5027522;28;19980;-81
2022/03/03 04:47:56;;;;;;;;;;;;;;;-0.82;70.04;101880.84;5044813;28;19924;-82
2022/03/03 04:50:21;;;;;;;;;;;;;;;-0.85;70.90;101883.06;5046059;28;19991;-82
2022/03/03 04:52:46;;;;;;;;;;;;;;;-0.89;70.44;101876.00;5039774;28;19936;-82
2022/03/03 04:55:12;;;;;;;;;;;;;;;-0.90;71.19;101876.75;5043141;28;19972;-82
2022/03/03 04:57:37;;;;;;;;;;;;;;;-0.92;71.92;101871.53;5045239;28;19925;-81
2022/03/03 05:00:04;;;;;;;;;;;;;;;-0.91;71.92;101878.41;5042063;28;19924;-81
2022/03/03 05:02:30;;;;;;;;;;;;;;;-0.86;71.64;101883.84;5044631;28;19925;-82
2022/03/03 05:04:55;;;;;;;;;;;;;;;-0.89;72.22;101879.41;5042857;28;19963;-80
2022/03/03 05:07:20;;;;;;;;;;;;;;;-0.87;71.89;101882.94;5039625;28;19925;-82
2022/03/03 05:09:45;;;;;;;;;;;;;;;-0.84;71.11;101882.34;5042190;28;20410;-80
2022/03/03 05:12:11;;;;;;;;;;;;;;;-0.85;71.54;101889.03;5044623;28;19940;-82
2022/03/03 05:14:36;;;;;;;;;;;;;;;-0.86;71.26;101886.34;5046720;28;20394;-82
2022/03/03 05:17:02;;;;;;;;;;;;;;;-0.90;71.73;101884.31;5043559;28;19950;-80
2022/03/03 05:19:27;;;;;;;;;;;;;;;-0.93;71.99;101879.00;5047332;28;20401;-82
2022/03/03 05:21:52;;;;;;;;;;;;;;;-0.87;72.29;101884.59;5044277;28;19925;-79
2022/03/03 05:24:18;;;;;;;;;;;;;;;-0.84;71.99;101887.41;5045440;28;20024;-82
2022/03/03 05:26:43;;;;;;;;;;;;;;;-0.84;71.67;101884.88;5039117;28;20054;-82
2022/03/03 05:29:08;;;;;;;;;;;;;;;-0.86;71.61;101883.84;5039204;28;20375;-80
2022/03/03 05:31:34;;;;;;;;;;;;;;;-0.84;71.17;101889.94;5044671;28;20011;-82
2022/03/03 05:33:59;;;;;;;;;;;;;;;-0.86;71.29;101887.25;5044670;28;19928;-79
2022/03/03 05:36:25;;;;;;;;;;;;;;;-0.89;72.10;101888.63;5044675;28;19983;-83
2022/03/03 05:38:52;;;;;;;;;;;;;;;-0.89;71.49;101889.50;5045558;28;20323;-81
2022/03/03 05:41:17;;;;;;;;;;;;;;;-0.90;71.52;101892.78;5048540;28;20015;-82
2022/03/03 05:43:42;;;;;;;;;;;;;;;-0.90;71.52;101895.31;5049657;28;20008;-82
2022/03/03 05:46:08;;;;;;;;;;;;;;;-0.90;71.62;101894.44;5048794;28;19920;-82
2022/03/03 05:48:33;;;;;;;;;;;;;;;-0.88;71.27;101895.44;5067155;28;19947;-82
2022/03/03 05:50:59;;;;;;;;;;;;;;;-0.90;71.97;101891.91;5055227;28;19921;-83
2022/03/03 05:53:25;;;;;;;;;;;;;;;-0.91;71.97;101890.09;5055301;28;19932;-82
2022/03/03 05:55:52;;;;;;;;;;;;;;;-0.94;72.32;101887.31;5054688;28;19925;-81
2022/03/03 05:58:19;;;;;;;;;;;;;;;-0.96;71.46;101886.31;5050007;28;19960;-82
2022/03/03 06:00:45;;;;;;;;;;;;;;;-1.07;72.69;101882.81;5043047;28;19917;-82
2022/03/03 06:03:17;;;;;;;;;;;;;;;-1.11;72.82;101881.63;5049867;28;19966;-83
2022/03/03 06:05:45;;;;;;;;;;;;;;;-1.06;72.90;101884.56;5041678;28;20018;-82
2022/03/03 06:08:15;;;;;;;;;;;;;;;-0.99;72.73;101886.91;5044124;28;19931;-83
2022/03/03 06:10:44;;;;;;;;;;;;;;;-0.97;72.81;101880.38;5049571;28;19948;-83
2022/03/03 06:13:23;;;;;;;;;;;;;;;-0.95;72.46;101880.50;5046480;28;19968;-82
2022/03/03 06:15:49;;;;;;;;;;;;;;;-1.00;72.31;101881.72;5047209;28;20054;-82
2022/03/03 06:18:14;;;;;;;;;;;;;;;-1.02;72.66;101881.59;5049800;28;20028;-83
2022/03/03 06:20:43;;;;;;;;;;;;;;;-1.08;73.24;101879.38;5049348;28;20333;-79
2022/03/03 06:23:08;;;;;;;;;;;;;;;-1.11;73.18;101881.63;5049703;28;19917;-83
2022/03/03 06:25:34;;;;;;;;;;;;;;;-1.06;73.02;101883.69;5047593;28;20658;-82
2022/03/03 06:27:59;;;;;;;;;;;;;;;-1.06;72.72;101883.69;5049880;28;19921;-81
2022/03/03 06:30:25;;;;;;;;;;;;;;;-1.10;73.06;101892.59;5046028;28;20309;-81
2022/03/03 06:32:50;;;;;;;;;;;;;;;-1.09;73.11;101885.19;5043211;28;19925;-80
2022/03/03 06:35:18;;;;;;;;;;;;;;;-1.07;73.63;101885.31;5044308;28;19917;-82
2022/03/03 06:37:43;;;;;;;;;;;;;;;-1.06;72.72;101883.69;5044311;28;19921;-83
2022/03/03 06:40:09;;;;;;;;;;;;;;;-1.06;73.73;101883.69;5045422;28;19952;-83
2022/03/03 06:42:34;;;;;;;;;;;;;;;-1.03;73.59;101889.00;5045825;28;20478;-83
2022/03/03 06:44:59;;;;;;;;;;;;;;;-1.02;73.39;101896.72;5048169;28;20019;-82
2022/03/03 06:47:25;;;;;;;;;;;;;;;-1.01;73.33;101898.50;5045896;28;19924;-78
2022/03/03 06:49:50;;;;;;;;;;;;;;;-0.97;72.97;101894.59;5042146;28;19924;-82
2022/03/03 06:52:16;;;;;;;;;;;;;;;-0.78;73.50;101894.66;5045702;28;20004;-81
2022/03/03 06:54:44;;;;;;;;;;;;;;;-0.34;73.49;101896.06;5050490;28;20489;-82
2022/03/03 06:57:11;;;;;;;;;;;;;;;0.46;70.16;101893.69;5048917;28;19956;-82
2022/03/03 06:59:37;;;;;;;;;;;;;;;1.06;67.93;101895.41;5047434;28;19931;-82
2022/03/03 07:02:03;;;;;;;;;;;;;;;1.70;67.13;101891.22;5046879;28;19917;-81
2022/03/03 07:04:29;;;;;;;;;;;;;;;2.56;63.29;101891.22;5049809;28;19925;-82
2022/03/03 07:06:55;;;;;;;;;;;;;;;3.53;60.51;101902.75;5045880;28;19920;-80
2022/03/03 07:09:20;;;;;;;;;;;;;;;4.15;57.40;101898.72;5044099;28;19931;-80
2022/03/03 07:11:46;;;;;;;;;;;;;;;4.64;53.99;101899.56;5049008;28;19951;-81
2022/03/03 07:14:12;;;;;;;;;;;;;;;5.02;52.27;101896.16;5047576;28;19989;-80
2022/03/03 07:16:42;;;;;;;;;;;;;;;5.45;52.06;101894.75;5061201;28;19929;-78
2022/03/03 07:19:23;;;;;;;;;;;;;;;5.95;49.94;101901.41;5044305;28;19916;-79
2022/03/03 07:22:09;;;;;;;;;;;;;;;6.76;47.06;101899.59;5037967;28;19928;-79
2022/03/03 07:24:40;;;;;;;;;;;;;;;7.22;48.34;101895.53;5038978;28;19924;-79
2022/03/03 07:27:06;;;;;;;;;;;;;;;7.86;45.87;101893.16;5041886;28;19943;-80
2022/03/03 07:30:10;;;;;;;;;;;;;;;;;;;;;
2022/03/03 07:32:38;;;;;;;;;;;;;;;8.94;41.37;101898.09;5025114;28;19921;-80
2022/03/03 07:35:06;;;;;;;;;;;;;;;9.54;42.72;101895.94;5045777;28;19925;-80
2022/03/03 07:37:36;;;;;;;;;;;;;;;10.13;39.96;101891.06;5044758;28;19950;-79
2022/03/03 07:40:09;;;;;;;;;;;;;;;10.46;39.95;101899.47;5045942;28;20016;-80
2022/03/03 07:42:35;;;;;;;;;;;;;;;10.66;37.20;101896.88;5048249;28;19924;-80
2022/03/03 07:45:03;;;;;;;;;;;;;;;10.61;40.20;101893.22;5040686;28;19946;-81
2022/03/03 07:47:29;;;;;;;;;;;;;;;11.03;36.88;101891.63;5048115;28;19920;-81
2022/03/03 07:49:55;;;;;;;;;;;;;;;10.77;36.32;101893.09;5046911;28;20429;-80
2022/03/03 07:52:21;;;;;;;;;;;;;;;10.97;36.18;101897.41;5043270;28;19936;-79
2022/03/03 07:54:46;;;;;;;;;;;;;;;11.66;37.65;101900.28;5064152;28;19925;-81
2022/03/03 07:57:15;;;;;;;;;;;;;;;12.34;34.49;101898.63;5046034;28;20423;-81
2022/03/03 07:59:45;;;;;;;;;;;;;;;12.73;36.47;101898.31;5047256;28;19952;-81
2022/03/03 08:02:13;;;;;;;;;;;;;;;13.40;34.25;101903.25;5046338;28;20007;-82
2022/03/03 08:04:39;;;;;;;;;;;;;;;13.82;37.52;101900.28;5058427;28;19925;-82
2022/03/03 08:07:06;;;;;;;;;;;;;;;14.68;33.13;101903.72;5046769;28;19963;-81
2022/03/03 08:09:32;;;;;;;;;;;;;;;14.75;30.53;101909.13;5049053;28;19955;-79
2022/03/03 08:11:59;;;;;;;;;;;;;;;14.65;30.70;101912.28;5041674;28;20365;-81
2022/03/03 08:14:24;;;;;;;;;;;;;;;15.32;30.30;101909.75;5043154;28;19921;-79
2022/03/03 08:16:50;;;;;;;;;;;;;;;15.67;29.43;101906.34;5052242;28;19929;-78
2022/03/03 08:19:17;;;;;;;;;;;;;;;15.96;27.24;101898.38;5050453;28;20394;-81
2022/03/03 08:21:43;;;;;;;;;;;;;;;15.67;29.43;101900.28;5061369;28;19928;-81
2022/03/03 08:24:09;;;;;;;;;;;;;;;15.73;29.43;101896.13;5045653;28;19924;-80
2022/03/03 08:26:35;;;;;;;;;;;;;;;15.50;26.91;101898.13;5048173;28;19916;-81
2022/03/03 08:29:00;;;;;;;;;;;;;;;14.72;28.71;101892.63;5045383;28;19970;-81
2022/03/03 08:31:34;;;;;;;;;;;;;;;14.45;31.05;101903.06;5046404;28;19924;-81
2022/03/03 08:34:12;;;;;;;;;;;;;;;14.84;29.35;101900.72;5045971;28;20280;-81
2022/03/03 08:36:45;;;;;;;;;;;;;;;14.95;28.91;101901.91;5044885;28;20371;-80
2022/03/03 08:39:12;;;;;;;;;;;;;;;14.65;27.59;101901.06;5044300;28;19919;-81
2022/03/03 08:41:38;;;;;;;;;;;;;;;14.46;29.44;101904.81;5045494;28;19967;-79
2022/03/03 08:44:04;;;;;;;;;;;;;;;14.39;28.58;101895.13;5043451;28;19955;-80
2022/03/03 08:46:31;;;;;;;;;;;;;;;14.22;29.26;101889.47;5048044;28;19986;-79
2022/03/03 08:48:58;;;;;;;;;;;;;;;14.14;29.14;101888.38;5046635;28;19959;-80
2022/03/03 08:51:24;;;;;;;;;;;;;;;14.81;27.81;101887.72;5045615;28;20395;-78
2022/03/03 08:53:49;;;;;;;;;;;;;;;14.85;27.29;101896.44;5047533;28;19948;-81
2022/03/03 08:56:14;;;;;;;;;;;;;;;14.64;27.94;101888.97;5044200;28;19916;-80
2022/03/03 08:58:40;;;;;;;;;;;;;;;15.25;29.52;101885.41;5043685;28;19927;-80
2022/03/03 09:01:05;;;;;;;;;;;;;;;15.84;26.59;101882.53;5045187;28;19917;-79
2022/03/03 09:03:31;;;;;;;;;;;;;;;15.87;26.37;101882.59;5043709;28;19920;-79
2022/03/03 09:05:56;;;;;;;;;;;;;;;16.08;26.10;101894.31;5045932;28;19943;-79
2022/03/03 09:08:22;;;;;;;;;;;;;;;16.49;26.36;101886.50;5041940;28;19999;-80
2022/03/03 09:10:48;;;;;;;;;;;;;;;17.27;25.12;101890.59;5045927;28;19928;-80
2022/03/03 09:13:14;;;;;;;;;;;;;;;17.25;25.05;101881.91;5041355;28;19924;-80
2022/03/03 09:15:39;;;;;;;;;;;;;;;17.07;25.12;101877.25;5046328;28;19978;-79
2022/03/03 09:18:05;;;;;;;;;;;;;;;16.63;26.09;101885.06;5042661;28;19932;-79
2022/03/03 09:20:30;;;;;;;;;;;;;;;17.07;26.31;101878.97;5043001;28;19916;-79
2022/03/03 09:22:59;;;;;;;;;;;;;;;17.69;24.74;101880.00;5059357;28;19964;-79
2022/03/03 09:25:24;;;;;;;;;;;;;;;17.98;25.96;101883.91;5042031;28;19929;-79
2022/03/03 09:27:49;;;;;;;;;;;;;;;18.12;23.14;101882.34;5045626;28;20303;-79
2022/03/03 09:30:15;;;;;;;;;;;;;;;18.00;23.49;101876.97;5042684;28;19925;-79
2022/03/03 09:32:43;;;;;;;;;;;;;;;18.29;24.33;101873.03;5044415;28;20047;-79
2022/03/03 09:35:09;;;;;;;;;;;;;;;18.17;24.22;101886.78;5045063;28;20011;-78
2022/03/03 09:37:37;;;;;;;;;;;;;;;17.76;24.80;101873.19;5045060;28;20003;-77
2022/03/03 09:40:04;;;;;;;;;;;;;;;18.12;22.76;101875.41;5043341;28;19924;-78
2022/03/03 09:42:33;;;;;;;;;;;;;;;17.77;24.83;101879.25;5036054;28;20382;-78
2022/03/03 09:44:59;;;;;;;;;;;;;;;18.51;25.32;101866.38;5039092;28;19924;-79
2022/03/03 09:47:24;;;;;;;;;;;;;;;19.70;24.43;101859.63;5045880;28;19921;-79
2022/03/03 09:49:49;;;;;;;;;;;;;;;19.71;21.46;101871.81;5037644;28;20352;-78
2022/03/03 09:52:16;;;;;;;;;;;;;;;19.62;21.23;101868.28;5040865;28;19921;-79
2022/03/03 09:54:42;;;;;;;;;;;;;;;19.49;22.92;101870.78;5046043;28;19921;-79
2022/03/03 09:57:08;;;;;;;;;;;;;;;20.05;21.75;101872.91;5038194;28;19924;-77
2022/03/03 09:59:33;;;;;;;;;;;;;;;20.52;21.31;101860.94;5039897;28;19921;-78
2022/03/03 10:02:06;;;;;;;;;;;;;;;20.67;20.67;101860.09;5045918;28;19921;-77
2022/03/03 10:04:31;;;;;;;;;;;;;;;21.03;20.83;101864.50;5043069;28;19916;-78
2022/03/03 10:07:01;;;;;;;;;;;;;;;21.36;21.61;101864.56;5040069;28;19975;-77
2022/03/03 10:09:27;;;;;;;;;;;;;;;21.08;20.58;101862.78;5044879;28;19962;-77
2022/03/03 10:12:03;;;;;;;;;;;;;;;21.09;21.52;101861.88;5042415;28;19941;-78
2022/03/03 10:14:29;;;;;;;;;;;;;;;21.30;20.78;101861.94;5048193;28;20035;-78
2022/03/03 10:16:54;;;;;;;;;;;;;;;20.73;19.95;101863.59;5047550;28;19963;-79
2022/03/03 10:19:19;;;;;;;;;;;;;;;18.88;21.80;101852.03;5046459;28;19916;-79
2022/03/03 10:21:45;;;;;;;;;;;;;;;18.70;23.21;101868.34;5043298;28;19944;-79
2022/03/03 10:24:14;;;;;;;;;;;;;;;18.99;22.82;101865.16;5046554;28;19925;-79
2022/03/03 10:26:39;;;;;;;;;;;;;;;19.32;21.66;101861.09;5047818;28;19916;-79
2022/03/03 10:29:14;;;;;;;;;;;;;;;19.83;22.67;101851.00;5047184;28;19928;-78
2022/03/03 10:31:47;;;;;;;;;;;;;;;20.82;20.04;101847.94;5052589;28;19925;-78
2022/03/03 10:34:17;;;;;;;;;;;;;;;20.84;20.94;101835.72;5055041;28;20367;-77
2022/03/03 10:36:42;;;;;;;;;;;;;;;20.93;21.35;101841.81;5047379;28;20013;-78
2022/03/03 10:39:07;;;;;;;;;;;;;;;21.25;19.86;101842.72;5064634;28;19921;-78
2022/03/03 10:41:33;;;;;;;;;;;;;;;20.36;20.45;101852.13;5053585;28;20287;-77
2022/03/03 10:44:01;;;;;;;;;;;;;;;20.00;20.14;101847.63;5051610;28;19917;-78
2022/03/03 10:46:26;;;;;;;;;;;;;;;19.58;20.20;101843.91;5051834;28;19932;-77
2022/03/03 10:48:51;;;;;;;;;;;;;;;19.16;20.86;101845.31;5046670;28;19984;-78
2022/03/03 10:51:19;;;;;;;;;;;;;;;19.86;21.91;101841.47;5064132;28;19929;-77
2022/03/03 10:53:44;;;;;;;;;;;;;;;20.20;19.35;101845.09;5050436;28;19924;-78
2022/03/03 10:56:14;;;;;;;;;;;;;;;20.18;20.38;101844.22;5049618;28;19928;-79
2022/03/03 10:58:57;;;;;;;;;;;;;;;20.01;20.18;101844.16;5048027;28;20291;-77
2022/03/03 11:01:25;;;;;;;;;;;;;;;20.17;19.53;101837.28;5042910;28;19924;-77
2022/03/03 11:03:50;;;;;;;;;;;;;;;20.51;19.50;101838.28;5048787;28;19925;-77
2022/03/03 11:06:16;;;;;;;;;;;;;;;20.54;18.81;101826.09;5048932;28;19921;-77
2022/03/03 11:08:42;;;;;;;;;;;;;;;19.72;19.51;101842.28;5047132;28;20287;-79
2022/03/03 11:11:07;;;;;;;;;;;;;;;19.19;19.47;101839.25;5045781;28;19988;-80
2022/03/03 11:13:33;;;;;;;;;;;;;;;18.99;20.18;101839.09;5044519;28;19951;-80
2022/03/03 11:15:59;;;;;;;;;;;;;;;18.52;21.67;101839.47;5048259;28;19928;-80
2022/03/03 11:18:24;;;;;;;;;;;;;;;18.44;21.10;101835.88;5048827;28;19917;-77
2022/03/03 11:20:50;;;;;;;;;;;;;;;18.60;20.69;101839.53;5046130;28;19966;-79
2022/03/03 11:23:15;;;;;;;;;;;;;;;18.33;20.73;101834.91;5042197;28;19952;-79
2022/03/03 11:25:41;;;;;;;;;;;;;;;18.74;20.18;101836.22;5045068;28;20007;-76
2022/03/03 11:28:08;;;;;;;;;;;;;;;19.31;19.71;101833.25;5046852;28;20011;-80
2022/03/03 11:30:34;;;;;;;;;;;;;;;19.24;20.25;101824.53;5043836;28;19928;-79
2022/03/03 11:33:18;;;;;;;;;;;;;;;19.41;20.37;101819.41;5045618;28;19925;-77
2022/03/03 11:35:50;;;;;;;;;;;;;;;19.35;19.76;101822.84;5048982;28;19921;-78
2022/03/03 11:38:16;;;;;;;;;;;;;;;19.28;19.34;101824.53;5047021;28;19924;-80
2022/03/03 11:40:52;;;;;;;;;;;;;;;19.08;20.43;101820.91;5046244;28;19924;-80
2022/03/03 11:43:17;;;;;;;;;;;;;;;19.36;19.95;101808.97;5048500;28;19917;-79
2022/03/03 11:45:50;;;;;;;;;;;;;;;19.54;19.98;101801.25;5049082;28;19927;-79
2022/03/03 11:48:15;;;;;;;;;;;;;;;19.86;20.23;101807.56;5045693;28;19995;-78
2022/03/03 11:50:41;;;;;;;;;;;;;;;19.77;19.32;101795.31;5049062;28;20206;-79
2022/03/03 11:53:09;;;;;;;;;;;;;;;19.43;19.11;101797.72;5044965;28;19921;-80
2022/03/03 11:55:36;;;;;;;;;;;;;;;19.40;19.65;101808.09;5049269;28;19999;-79
2022/03/03 11:58:02;;;;;;;;;;;;;;;19.20;19.96;101794.06;5049264;28;20442;-79
2022/03/03 12:00:28;;;;;;;;;;;;;;;19.35;19.98;101788.06;5048151;28;19968;-78
2022/03/03 12:02:55;;;;;;;;;;;;;;;19.33;19.83;101800.25;5045385;28;20427;-77
2022/03/03 12:05:26;;;;;;;;;;;;;;;18.46;19.79;101792.50;5047175;28;20044;-79
2022/03/03 12:07:55;;;;;;;;;;;;;;;17.96;20.72;101803.22;5048243;28;19920;-78
2022/03/03 12:10:20;;;;;;;;;;;;;;;17.99;20.13;101800.66;5048838;28;20016;-80
2022/03/03 12:12:46;;;;;;;;;;;;;;;17.73;20.52;101804.66;5047794;28;20439;-81
2022/03/03 12:15:11;;;;;;;;;;;;;;;17.64;20.81;101792.34;5043940;28;19940;-80
2022/03/03 12:17:45;;;;;;;;;;;;;;;18.44;20.05;101784.69;5042493;28;19929;-81
2022/03/03 12:20:40;;;;;;;;;;;;;;;18.74;19.46;101785.84;5045156;28;20567;-78
2022/03/03 12:23:07;;;;;;;;;;;;;;;18.64;19.88;101792.69;5045749;28;19924;-76
2022/03/03 12:25:51;;;;;;;;;;;;;;;18.78;20.22;101779.81;5045553;28;19947;-79
2022/03/03 12:28:23;;;;;;;;;;;;;;;18.98;19.62;101785.19;5045317;28;19936;-81
2022/03/03 12:30:50;;;;;;;;;;;;;;;18.53;20.45;101783.91;5046811;28;19968;-80
2022/03/03 12:33:24;;;;;;;;;;;;;;;19.10;20.20;101784.41;5046767;28;19967;-79
2022/03/03 12:35:50;;;;;;;;;;;;;;;20.15;19.59;101774.59;5044379;28;19917;-80
2022/03/03 12:38:15;;;;;;;;;;;;;;;20.54;19.60;101781.69;5046594;28;20011;-82